sensor_id;sensor_type;location;lat;lon;timestamp;temperature;humidity
31837;DHT22;18401;49.344;6.240;2023-12-04T00:00:36;-1.30;99.90
31837;DHT22;18401;49.344;6.240;2023-12-04T00:03:01;-1.30;99.90
31837;DHT22;18401;49.344;6.240;2023-12-04T00:05:27;-1.40;99.90
31837;DHT22;18401;49.344;6.240;2023-12-04T00:07:53;-1.20;99.90
31837;DHT22;18401;49.344;6.240;2023-12-04T00:10:18;-1.30;99.90
31837;DHT22;18401;49.344;6.240;2023-12-04T00:12:44;-1.40;99.90
31837;DHT22;18401;49.344;6.240;2023-12-04T00:15:10;-1.30;99.90
31837;DHT22;18401;49.344;6.240;2023-12-04T00:17:36;-1.30;99.90
31837;DHT22;18401;49.344;6.240;2023-12-04T00:20:06;-1.40;99.90
31837;DHT22;18401;49.344;6.240;2023-12-04T00:22:32;-1.30;99.90
31837;DHT22;18401;49.344;6.240;2023-12-04T00:24:58;-1.30;99.90
31837;DHT22;18401;49.344;6.240;2023-12-04T00:27:23;-1.30;99.90
31837;DHT22;18401;49.344;6.240;2023-12-04T00:29:52;-1.30;99.90
31837;DHT22;18401;49.344;6.240;2023-12-04T00:32:18;-1.30;99.90
31837;DHT22;18401;49.344;6.240;2023-12-04T00:34:43;-1.40;99.90
31837;DHT22;18401;49.344;6.240;2023-12-04T00:37:09;-1.30;99.90
31837;DHT22;18401;49.344;6.240;2023-12-04T00:39:35;-1.40;99.90
31837;DHT22;18401;49.344;6.240;2023-12-04T00:42:00;-1.40;99.90
31837;DHT22;18401;49.344;6.240;2023-12-04T00:44:26;-1.40;99.90
31837;DHT22;18401;49.344;6.240;2023-12-04T00:46:52;-1.40;99.90
31837;DHT22;18401;49.344;6.240;2023-12-04T00:49:17;-1.50;99.90
31837;DHT22;18401;49.344;6.240;2023-12-04T00:51:43;-1.50;99.90
31837;DHT22;18401;49.344;6.240;2023-12-04T00:54:08;-1.40;99.90
31837;DHT22;18401;49.344;6.240;2023-12-04T00:56:34;-1.50;99.90
31837;DHT22;18401;49.344;6.240;2023-12-04T00:59:00;-1.40;99.90
31837;DHT22;18401;49.344;6.240;2023-12-04T01:01:25;-1.40;99.90
31837;DHT22;18401;49.344;6.240;2023-12-04T01:03:51;-1.30;99.90
31837;DHT22;18401;49.344;6.240;2023-12-04T01:06:21;-1.30;99.90
31837;DHT22;18401;49.344;6.240;2023-12-04T01:08:48;-1.30;99.90
31837;DHT22;18401;49.344;6.240;2023-12-04T01:11:15;-1.30;99.90
31837;DHT22;18401;49.344;6.240;2023-12-04T01:13:40;-1.30;99.90
31837;DHT22;18401;49.344;6.240;2023-12-04T01:16:07;-1.30;99.90
31837;DHT22;18401;49.344;6.240;2023-12-04T01:18:33;-1.20;99.90
31837;DHT22;18401;49.344;6.240;2023-12-04T01:20:58;-1.20;99.90
31837;DHT22;18401;49.344;6.240;2023-12-04T01:23:26;-1.30;99.90
31837;DHT22;18401;49.344;6.240;2023-12-04T01:25:51;-1.30;99.90
31837;DHT22;18401;49.344;6.240;2023-12-04T01:28:17;-1.20;99.90
31837;DHT22;18401;49.344;6.240;2023-12-04T01:30:42;-1.30;99.90
31837;DHT22;18401;49.344;6.240;2023-12-04T01:33:08;-1.20;99.90
31837;DHT22;18401;49.344;6.240;2023-12-04T01:35:34;-1.20;99.90
31837;DHT22;18401;49.344;6.240;2023-12-04T01:37:59;-1.20;99.90
31837;DHT22;18401;49.344;6.240;2023-12-04T01:40:26;-1.20;99.90
31837;DHT22;18401;49.344;6.240;2023-12-04T01:42:52;-1.20;99.90
31837;DHT22;18401;49.344;6.240;2023-12-04T01:45:17;-1.20;99.90
31837;DHT22;18401;49.344;6.240;2023-12-04T01:47:45;-1.20;99.90
31837;DHT22;18401;49.344;6.240;2023-12-04T01:50:12;-1.10;99.90
31837;DHT22;18401;49.344;6.240;2023-12-04T01:52:38;-1.10;99.90
31837;DHT22;18401;49.344;6.240;2023-12-04T01:55:06;-1.10;99.90
31837;DHT22;18401;49.344;6.240;2023-12-04T01:57:32;-1.10;99.90
31837;DHT22;18401;49.344;6.240;2023-12-04T01:59:58;-1.10;99.90
31837;DHT22;18401;49.344;6.240;2023-12-04T02:02:24;-1.10;99.90
31837;DHT22;18401;49.344;6.240;2023-12-04T02:04:49;-1.10;99.90
31837;DHT22;18401;49.344;6.240;2023-12-04T02:07:15;-1.10;99.90
31837;DHT22;18401;49.344;6.240;2023-12-04T02:09:41;-1.10;99.90
31837;DHT22;18401;49.344;6.240;2023-12-04T02:12:06;-1.10;99.90
31837;DHT22;18401;49.344;6.240;2023-12-04T02:14:32;-1.20;99.90
31837;DHT22;18401;49.344;6.240;2023-12-04T02:16:58;-1.10;99.90
31837;DHT22;18401;49.344;6.240;2023-12-04T02:19:26;-1.10;99.90
31837;DHT22;18401;49.344;6.240;2023-12-04T02:21:52;-1.10;99.90
31837;DHT22;18401;49.344;6.240;2023-12-04T02:24:17;-1.10;99.90
31837;DHT22;18401;49.344;6.240;2023-12-04T02:26:51;-1.20;99.90
31837;DHT22;18401;49.344;6.240;2023-12-04T02:29:23;-1.10;99.90
31837;DHT22;18401;49.344;6.240;2023-12-04T02:31:51;-1.10;99.90
31837;DHT22;18401;49.344;6.240;2023-12-04T02:34:18;-1.10;99.90
31837;DHT22;18401;49.344;6.240;2023-12-04T02:36:45;-1.10;99.90
31837;DHT22;18401;49.344;6.240;2023-12-04T02:39:12;-1.10;99.90
31837;DHT22;18401;49.344;6.240;2023-12-04T02:41:38;-1.20;99.90
31837;DHT22;18401;49.344;6.240;2023-12-04T02:44:04;-1.20;99.90
31837;DHT22;18401;49.344;6.240;2023-12-04T02:46:29;-1.20;99.90
31837;DHT22;18401;49.344;6.240;2023-12-04T02:48:55;-1.20;99.90
31837;DHT22;18401;49.344;6.240;2023-12-04T02:51:21;-1.20;99.90
31837;DHT22;18401;49.344;6.240;2023-12-04T02:53:46;-1.20;99.90
31837;DHT22;18401;49.344;6.240;2023-12-04T02:56:12;-1.30;99.90
31837;DHT22;18401;49.344;6.240;2023-12-04T02:58:37;-1.30;99.90
31837;DHT22;18401;49.344;6.240;2023-12-04T03:01:03;-1.30;99.90
31837;DHT22;18401;49.344;6.240;2023-12-04T03:03:29;-1.30;99.90
31837;DHT22;18401;49.344;6.240;2023-12-04T03:05:55;-1.30;99.90
31837;DHT22;18401;49.344;6.240;2023-12-04T03:08:20;-1.30;99.90
31837;DHT22;18401;49.344;6.240;2023-12-04T03:10:46;-1.30;99.90
31837;DHT22;18401;49.344;6.240;2023-12-04T03:13:12;-1.20;99.90
31837;DHT22;18401;49.344;6.240;2023-12-04T03:15:37;-1.20;99.90
31837;DHT22;18401;49.344;6.240;2023-12-04T03:18:03;-1.20;99.90
31837;DHT22;18401;49.344;6.240;2023-12-04T03:20:28;-1.20;99.90
31837;DHT22;18401;49.344;6.240;2023-12-04T03:22:54;-1.20;99.90
31837;DHT22;18401;49.344;6.240;2023-12-04T03:25:20;-1.20;99.90
31837;DHT22;18401;49.344;6.240;2023-12-04T03:27:45;-1.30;99.90
31837;DHT22;18401;49.344;6.240;2023-12-04T03:30:11;-1.30;99.90
31837;DHT22;18401;49.344;6.240;2023-12-04T03:32:37;-1.30;99.90
31837;DHT22;18401;49.344;6.240;2023-12-04T03:35:03;-1.20;99.90
31837;DHT22;18401;49.344;6.240;2023-12-04T03:37:28;-1.20;99.90
31837;DHT22;18401;49.344;6.240;2023-12-04T03:39:54;-1.20;99.90
31837;DHT22;18401;49.344;6.240;2023-12-04T03:42:19;-1.20;99.90
31837;DHT22;18401;49.344;6.240;2023-12-04T03:44:45;-1.20;99.90
31837;DHT22;18401;49.344;6.240;2023-12-04T03:47:10;-1.20;99.90
31837;DHT22;18401;49.344;6.240;2023-12-04T03:49:37;-1.20;99.90
31837;DHT22;18401;49.344;6.240;2023-12-04T03:52:02;-1.20;99.90
31837;DHT22;18401;49.344;6.240;2023-12-04T03:54:28;-1.20;99.90
31837;DHT22;18401;49.344;6.240;2023-12-04T03:56:54;-1.30;99.90
31837;DHT22;18401;49.344;6.240;2023-12-04T03:59:19;-1.30;99.90
31837;DHT22;18401;49.344;6.240;2023-12-04T04:01:45;-1.30;99.90
31837;DHT22;18401;49.344;6.240;2023-12-04T04:04:11;-1.30;99.90
31837;DHT22;18401;49.344;6.240;2023-12-04T04:06:36;-1.30;99.90
31837;DHT22;18401;49.344;6.240;2023-12-04T04:09:04;-1.20;99.90
31837;DHT22;18401;49.344;6.240;2023-12-04T04:11:29;-1.20;99.90
31837;DHT22;18401;49.344;6.240;2023-12-04T04:13:55;-1.20;99.90
31837;DHT22;18401;49.344;6.240;2023-12-04T04:16:21;-1.20;99.90
31837;DHT22;18401;49.344;6.240;2023-12-04T04:18:47;-1.30;99.90
31837;DHT22;18401;49.344;6.240;2023-12-04T04:21:12;-1.30;99.90
31837;DHT22;18401;49.344;6.240;2023-12-04T04:23:38;-1.40;99.90
31837;DHT22;18401;49.344;6.240;2023-12-04T04:26:04;-1.30;99.90
31837;DHT22;18401;49.344;6.240;2023-12-04T04:28:29;-1.30;99.90
31837;DHT22;18401;49.344;6.240;2023-12-04T04:30:55;-1.30;99.90
31837;DHT22;18401;49.344;6.240;2023-12-04T04:33:20;-1.30;99.90
31837;DHT22;18401;49.344;6.240;2023-12-04T04:35:46;-1.20;99.90
31837;DHT22;18401;49.344;6.240;2023-12-04T04:38:12;-1.20;99.90
31837;DHT22;18401;49.344;6.240;2023-12-04T04:40:37;-1.20;99.90
31837;DHT22;18401;49.344;6.240;2023-12-04T04:43:07;-1.20;99.90
31837;DHT22;18401;49.344;6.240;2023-12-04T04:45:33;-1.20;99.90
31837;DHT22;18401;49.344;6.240;2023-12-04T04:47:59;-1.20;99.90
31837;DHT22;18401;49.344;6.240;2023-12-04T04:50:24;-1.10;99.90
31837;DHT22;18401;49.344;6.240;2023-12-04T04:52:50;-1.10;99.90
31837;DHT22;18401;49.344;6.240;2023-12-04T04:55:16;-1.10;99.90
31837;DHT22;18401;49.344;6.240;2023-12-04T04:57:41;-1.10;99.90
31837;DHT22;18401;49.344;6.240;2023-12-04T05:00:07;-1.10;99.90
31837;DHT22;18401;49.344;6.240;2023-12-04T05:02:33;-1.10;99.90
31837;DHT22;18401;49.344;6.240;2023-12-04T05:05:02;-1.10;99.90
31837;DHT22;18401;49.344;6.240;2023-12-04T05:07:29;-1.10;99.90
31837;DHT22;18401;49.344;6.240;2023-12-04T05:09:54;-1.10;99.90
31837;DHT22;18401;49.344;6.240;2023-12-04T05:12:20;-1.10;99.90
31837;DHT22;18401;49.344;6.240;2023-12-04T05:14:45;-1.10;99.90
31837;DHT22;18401;49.344;6.240;2023-12-04T05:17:11;-1.10;99.90
31837;DHT22;18401;49.344;6.240;2023-12-04T05:19:37;-1.10;99.90
31837;DHT22;18401;49.344;6.240;2023-12-04T05:22:03;-1.00;99.90
31837;DHT22;18401;49.344;6.240;2023-12-04T05:24:29;-1.00;99.90
31837;DHT22;18401;49.344;6.240;2023-12-04T05:26:54;-0.90;99.90
31837;DHT22;18401;49.344;6.240;2023-12-04T05:29:20;-0.90;99.90
31837;DHT22;18401;49.344;6.240;2023-12-04T05:31:46;-0.90;99.90
31837;DHT22;18401;49.344;6.240;2023-12-04T05:34:12;-0.90;99.90
31837;DHT22;18401;49.344;6.240;2023-12-04T05:36:38;-1.00;99.90
31837;DHT22;18401;49.344;6.240;2023-12-04T05:39:03;-1.00;99.90
31837;DHT22;18401;49.344;6.240;2023-12-04T05:41:30;-1.10;99.90
31837;DHT22;18401;49.344;6.240;2023-12-04T05:43:55;-1.10;99.90
31837;DHT22;18401;49.344;6.240;2023-12-04T05:46:21;-1.00;99.90
31837;DHT22;18401;49.344;6.240;2023-12-04T05:48:47;-1.10;99.90
31837;DHT22;18401;49.344;6.240;2023-12-04T05:51:13;-1.20;99.90
31837;DHT22;18401;49.344;6.240;2023-12-04T05:53:40;-1.30;99.90
31837;DHT22;18401;49.344;6.240;2023-12-04T05:56:05;-1.30;99.90
31837;DHT22;18401;49.344;6.240;2023-12-04T05:58:34;-1.30;99.90
31837;DHT22;18401;49.344;6.240;2023-12-04T06:01:00;-1.30;99.90
31837;DHT22;18401;49.344;6.240;2023-12-04T06:03:26;-1.30;99.90
31837;DHT22;18401;49.344;6.240;2023-12-04T06:05:51;-1.20;99.90
31837;DHT22;18401;49.344;6.240;2023-12-04T06:08:17;-1.30;99.90
31837;DHT22;18401;49.344;6.240;2023-12-04T06:10:43;-1.30;99.90
31837;DHT22;18401;49.344;6.240;2023-12-04T06:13:08;-1.30;99.90
31837;DHT22;18401;49.344;6.240;2023-12-04T06:15:34;-1.30;99.90
31837;DHT22;18401;49.344;6.240;2023-12-04T06:18:00;-1.40;99.90
31837;DHT22;18401;49.344;6.240;2023-12-04T06:20:25;-1.40;99.90
31837;DHT22;18401;49.344;6.240;2023-12-04T06:22:51;-1.40;99.90
31837;DHT22;18401;49.344;6.240;2023-12-04T06:25:17;-1.40;99.90
31837;DHT22;18401;49.344;6.240;2023-12-04T06:27:44;-1.30;99.90
31837;DHT22;18401;49.344;6.240;2023-12-04T06:30:10;-1.30;99.90
31837;DHT22;18401;49.344;6.240;2023-12-04T06:32:36;-1.30;99.90
31837;DHT22;18401;49.344;6.240;2023-12-04T06:35:02;-1.20;99.90
31837;DHT22;18401;49.344;6.240;2023-12-04T06:37:29;-1.20;99.90
31837;DHT22;18401;49.344;6.240;2023-12-04T06:39:58;-1.20;99.90
31837;DHT22;18401;49.344;6.240;2023-12-04T06:42:25;-1.10;99.90
31837;DHT22;18401;49.344;6.240;2023-12-04T06:44:51;-1.10;99.90
31837;DHT22;18401;49.344;6.240;2023-12-04T06:47:19;-1.10;99.90
31837;DHT22;18401;49.344;6.240;2023-12-04T06:49:47;-1.10;99.90
31837;DHT22;18401;49.344;6.240;2023-12-04T06:52:12;-1.10;99.90
31837;DHT22;18401;49.344;6.240;2023-12-04T06:54:38;-1.10;99.90
31837;DHT22;18401;49.344;6.240;2023-12-04T06:57:04;-1.00;99.90
31837;DHT22;18401;49.344;6.240;2023-12-04T06:59:30;-1.00;99.90
31837;DHT22;18401;49.344;6.240;2023-12-04T07:01:55;-1.00;99.90
31837;DHT22;18401;49.344;6.240;2023-12-04T07:04:21;-0.90;99.90
31837;DHT22;18401;49.344;6.240;2023-12-04T07:06:47;-0.90;99.90
31837;DHT22;18401;49.344;6.240;2023-12-04T07:09:14;-0.70;99.90
31837;DHT22;18401;49.344;6.240;2023-12-04T07:11:39;-0.60;99.90
31837;DHT22;18401;49.344;6.240;2023-12-04T07:14:05;-0.50;99.90
31837;DHT22;18401;49.344;6.240;2023-12-04T07:16:31;-0.40;99.90
31837;DHT22;18401;49.344;6.240;2023-12-04T07:19:03;-0.30;99.90
31837;DHT22;18401;49.344;6.240;2023-12-04T07:21:29;-0.30;99.90
31837;DHT22;18401;49.344;6.240;2023-12-04T07:23:54;-0.20;99.90
31837;DHT22;18401;49.344;6.240;2023-12-04T07:26:20;-0.30;99.90
31837;DHT22;18401;49.344;6.240;2023-12-04T07:28:46;-0.20;99.90
31837;DHT22;18401;49.344;6.240;2023-12-04T07:31:11;-0.20;99.90
31837;DHT22;18401;49.344;6.240;2023-12-04T07:33:37;-0.30;99.90
31837;DHT22;18401;49.344;6.240;2023-12-04T07:36:03;-0.50;99.90
31837;DHT22;18401;49.344;6.240;2023-12-04T07:38:28;-0.70;99.90
31837;DHT22;18401;49.344;6.240;2023-12-04T07:40:54;-0.70;99.90
31837;DHT22;18401;49.344;6.240;2023-12-04T07:43:20;-0.60;99.90
31837;DHT22;18401;49.344;6.240;2023-12-04T07:45:45;-0.60;99.90
31837;DHT22;18401;49.344;6.240;2023-12-04T07:48:11;-0.50;99.90
31837;DHT22;18401;49.344;6.240;2023-12-04T07:50:38;-0.30;99.90
31837;DHT22;18401;49.344;6.240;2023-12-04T07:53:04;-0.20;99.90
31837;DHT22;18401;49.344;6.240;2023-12-04T07:55:30;-0.10;99.90
31837;DHT22;18401;49.344;6.240;2023-12-04T07:57:56;0.10;99.90
31837;DHT22;18401;49.344;6.240;2023-12-04T08:00:22;0.20;99.90
31837;DHT22;18401;49.344;6.240;2023-12-04T08:02:48;0.20;99.90
31837;DHT22;18401;49.344;6.240;2023-12-04T08:05:14;0.20;98.60
31837;DHT22;18401;49.344;6.240;2023-12-04T08:07:40;0.30;97.40
31837;DHT22;18401;49.344;6.240;2023-12-04T08:10:07;0.40;92.50
31837;DHT22;18401;49.344;6.240;2023-12-04T08:12:33;0.40;90.50
31837;DHT22;18401;49.344;6.240;2023-12-04T08:14:59;0.40;86.30
31837;DHT22;18401;49.344;6.240;2023-12-04T08:17:25;0.40;90.90
31837;DHT22;18401;49.344;6.240;2023-12-04T08:19:51;0.40;91.90
31837;DHT22;18401;49.344;6.240;2023-12-04T08:22:16;0.40;92.00
31837;DHT22;18401;49.344;6.240;2023-12-04T08:24:42;0.50;95.00
31837;DHT22;18401;49.344;6.240;2023-12-04T08:27:08;0.50;99.90
31837;DHT22;18401;49.344;6.240;2023-12-04T08:29:33;0.50;99.90
31837;DHT22;18401;49.344;6.240;2023-12-04T08:32:00;0.40;99.90
31837;DHT22;18401;49.344;6.240;2023-12-04T08:34:25;0.30;99.90
31837;DHT22;18401;49.344;6.240;2023-12-04T08:36:51;0.30;99.90
31837;DHT22;18401;49.344;6.240;2023-12-04T08:39:16;0.20;99.90
31837;DHT22;18401;49.344;6.240;2023-12-04T08:41:45;0.20;99.90
31837;DHT22;18401;49.344;6.240;2023-12-04T08:44:13;0.20;99.90
31837;DHT22;18401;49.344;6.240;2023-12-04T08:46:38;0.20;99.90
31837;DHT22;18401;49.344;6.240;2023-12-04T08:49:05;0.20;99.90
31837;DHT22;18401;49.344;6.240;2023-12-04T08:51:31;0.10;99.90
31837;DHT22;18401;49.344;6.240;2023-12-04T08:53:57;0.10;99.90
31837;DHT22;18401;49.344;6.240;2023-12-04T08:56:22;0.10;99.90
31837;DHT22;18401;49.344;6.240;2023-12-04T08:58:48;0.10;99.90
31837;DHT22;18401;49.344;6.240;2023-12-04T09:01:16;0.10;99.90
31837;DHT22;18401;49.344;6.240;2023-12-04T09:03:41;0.10;99.90
31837;DHT22;18401;49.344;6.240;2023-12-04T09:06:07;0.10;99.90
31837;DHT22;18401;49.344;6.240;2023-12-04T09:08:34;0.10;99.90
31837;DHT22;18401;49.344;6.240;2023-12-04T09:11:01;0.20;99.90
31837;DHT22;18401;49.344;6.240;2023-12-04T09:13:28;0.30;99.90
31837;DHT22;18401;49.344;6.240;2023-12-04T09:15:55;0.40;99.90
31837;DHT22;18401;49.344;6.240;2023-12-04T09:18:21;0.40;99.90
31837;DHT22;18401;49.344;6.240;2023-12-04T09:20:46;0.40;99.90
31837;DHT22;18401;49.344;6.240;2023-12-04T09:23:12;0.40;99.90
31837;DHT22;18401;49.344;6.240;2023-12-04T09:25:38;0.40;99.90
31837;DHT22;18401;49.344;6.240;2023-12-04T09:28:03;0.40;99.90
31837;DHT22;18401;49.344;6.240;2023-12-04T09:30:29;0.50;99.90
31837;DHT22;18401;49.344;6.240;2023-12-04T09:32:55;0.60;99.90
31837;DHT22;18401;49.344;6.240;2023-12-04T09:35:20;0.60;99.90
31837;DHT22;18401;49.344;6.240;2023-12-04T09:37:46;0.60;99.90
31837;DHT22;18401;49.344;6.240;2023-12-04T09:40:13;0.70;99.90
31837;DHT22;18401;49.344;6.240;2023-12-04T09:42:39;0.70;99.90
31837;DHT22;18401;49.344;6.240;2023-12-04T09:45:07;0.80;99.90
31837;DHT22;18401;49.344;6.240;2023-12-04T09:47:33;0.80;99.90
31837;DHT22;18401;49.344;6.240;2023-12-04T09:50:00;0.80;99.90
31837;DHT22;18401;49.344;6.240;2023-12-04T09:52:27;1.00;99.90
31837;DHT22;18401;49.344;6.240;2023-12-04T09:54:53;1.10;99.90
31837;DHT22;18401;49.344;6.240;2023-12-04T09:57:19;1.10;99.90
31837;DHT22;18401;49.344;6.240;2023-12-04T09:59:47;1.10;99.90
31837;DHT22;18401;49.344;6.240;2023-12-04T10:02:14;1.10;99.90
31837;DHT22;18401;49.344;6.240;2023-12-04T10:04:40;1.10;99.90
31837;DHT22;18401;49.344;6.240;2023-12-04T10:07:07;1.10;99.90
31837;DHT22;18401;49.344;6.240;2023-12-04T10:09:33;1.20;99.90
31837;DHT22;18401;49.344;6.240;2023-12-04T10:11:59;1.10;99.90
31837;DHT22;18401;49.344;6.240;2023-12-04T10:14:26;1.10;99.90
31837;DHT22;18401;49.344;6.240;2023-12-04T10:16:51;1.10;99.90
31837;DHT22;18401;49.344;6.240;2023-12-04T10:19:23;1.20;99.90
31837;DHT22;18401;49.344;6.240;2023-12-04T10:21:52;1.30;99.90
31837;DHT22;18401;49.344;6.240;2023-12-04T10:24:38;1.30;99.90
31837;DHT22;18401;49.344;6.240;2023-12-04T10:27:08;1.30;99.90
31837;DHT22;18401;49.344;6.240;2023-12-04T10:29:48;1.30;99.90
31837;DHT22;18401;49.344;6.240;2023-12-04T10:32:18;1.30;99.90
31837;DHT22;18401;49.344;6.240;2023-12-04T10:34:47;1.30;99.90
31837;DHT22;18401;49.344;6.240;2023-12-04T10:37:12;1.40;99.90
31837;DHT22;18401;49.344;6.240;2023-12-04T10:39:47;1.40;99.90
31837;DHT22;18401;49.344;6.240;2023-12-04T10:42:23;1.50;99.90
31837;DHT22;18401;49.344;6.240;2023-12-04T10:44:50;1.50;99.90
31837;DHT22;18401;49.344;6.240;2023-12-04T10:47:16;1.60;99.90
31837;DHT22;18401;49.344;6.240;2023-12-04T10:49:42;1.60;99.90
31837;DHT22;18401;49.344;6.240;2023-12-04T10:52:09;1.60;99.90
31837;DHT22;18401;49.344;6.240;2023-12-04T10:54:35;1.60;99.90
31837;DHT22;18401;49.344;6.240;2023-12-04T10:57:01;1.50;99.90
31837;DHT22;18401;49.344;6.240;2023-12-04T10:59:32;1.50;99.90
31837;DHT22;18401;49.344;6.240;2023-12-04T11:02:01;1.60;99.90
31837;DHT22;18401;49.344;6.240;2023-12-04T11:04:31;1.60;99.90
31837;DHT22;18401;49.344;6.240;2023-12-04T11:06:59;1.60;99.90
31837;DHT22;18401;49.344;6.240;2023-12-04T11:09:28;1.60;99.90
31837;DHT22;18401;49.344;6.240;2023-12-04T11:11:58;1.60;99.90
31837;DHT22;18401;49.344;6.240;2023-12-04T11:14:31;1.60;99.90
31837;DHT22;18401;49.344;6.240;2023-12-04T11:17:04;1.70;99.90
31837;DHT22;18401;49.344;6.240;2023-12-04T11:19:55;1.70;99.90
31837;DHT22;18401;49.344;6.240;2023-12-04T11:22:21;1.70;99.90
31837;DHT22;18401;49.344;6.240;2023-12-04T11:24:48;1.60;99.90
31837;DHT22;18401;49.344;6.240;2023-12-04T11:27:18;1.60;99.90
31837;DHT22;18401;49.344;6.240;2023-12-04T11:29:45;1.50;99.90
31837;DHT22;18401;49.344;6.240;2023-12-04T11:32:15;1.50;99.90
31837;DHT22;18401;49.344;6.240;2023-12-04T11:34:54;1.50;99.90
31837;DHT22;18401;49.344;6.240;2023-12-04T11:37:20;1.50;99.90
31837;DHT22;18401;49.344;6.240;2023-12-04T11:39:47;1.40;99.90
31837;DHT22;18401;49.344;6.240;2023-12-04T11:42:27;1.40;99.90
31837;DHT22;18401;49.344;6.240;2023-12-04T11:44:57;1.50;99.90
31837;DHT22;18401;49.344;6.240;2023-12-04T11:47:23;1.50;99.90
31837;DHT22;18401;49.344;6.240;2023-12-04T11:49:48;1.60;99.90
31837;DHT22;18401;49.344;6.240;2023-12-04T11:52:15;1.60;99.90
31837;DHT22;18401;49.344;6.240;2023-12-04T11:55:00;1.60;99.90
31837;DHT22;18401;49.344;6.240;2023-12-04T11:57:38;1.70;99.90
31837;DHT22;18401;49.344;6.240;2023-12-04T12:00:11;1.60;99.90
31837;DHT22;18401;49.344;6.240;2023-12-04T12:05:29;1.70;99.90
31837;DHT22;18401;49.344;6.240;2023-12-04T12:07:56;1.80;99.90
31837;DHT22;18401;49.344;6.240;2023-12-04T12:10:24;1.80;99.90
31837;DHT22;18401;49.344;6.240;2023-12-04T12:12:50;1.90;99.90
31837;DHT22;18401;49.344;6.240;2023-12-04T12:15:17;1.90;99.90
31837;DHT22;18401;49.344;6.240;2023-12-04T12:17:42;2.00;99.90
31837;DHT22;18401;49.344;6.240;2023-12-04T12:20:10;2.00;99.90
31837;DHT22;18401;49.344;6.240;2023-12-04T12:22:37;2.00;99.90
31837;DHT22;18401;49.344;6.240;2023-12-04T12:25:10;1.90;99.90
31837;DHT22;18401;49.344;6.240;2023-12-04T12:27:37;1.90;99.90
31837;DHT22;18401;49.344;6.240;2023-12-04T12:30:03;1.90;99.90
31837;DHT22;18401;49.344;6.240;2023-12-04T12:32:31;1.90;99.90
31837;DHT22;18401;49.344;6.240;2023-12-04T12:34:57;1.90;99.90
31837;DHT22;18401;49.344;6.240;2023-12-04T12:37:22;1.90;99.90
31837;DHT22;18401;49.344;6.240;2023-12-04T12:39:48;1.90;99.90
31837;DHT22;18401;49.344;6.240;2023-12-04T12:42:25;1.90;99.90
31837;DHT22;18401;49.344;6.240;2023-12-04T12:44:52;2.00;99.90
31837;DHT22;18401;49.344;6.240;2023-12-04T12:47:18;2.10;99.90
31837;DHT22;18401;49.344;6.240;2023-12-04T12:49:44;2.00;99.90
31837;DHT22;18401;49.344;6.240;2023-12-04T12:52:11;2.20;99.90
31837;DHT22;18401;49.344;6.240;2023-12-04T12:54:37;2.20;99.90
31837;DHT22;18401;49.344;6.240;2023-12-04T12:57:03;2.20;99.90
31837;DHT22;18401;49.344;6.240;2023-12-04T12:59:29;2.30;99.90
31837;DHT22;18401;49.344;6.240;2023-12-04T13:01:55;2.20;99.90
31837;DHT22;18401;49.344;6.240;2023-12-04T13:04:22;2.30;99.90
31837;DHT22;18401;49.344;6.240;2023-12-04T13:06:48;2.30;99.90
31837;DHT22;18401;49.344;6.240;2023-12-04T13:09:14;2.30;99.90
31837;DHT22;18401;49.344;6.240;2023-12-04T13:11:44;2.30;99.90
31837;DHT22;18401;49.344;6.240;2023-12-04T13:14:10;2.20;99.90
31837;DHT22;18401;49.344;6.240;2023-12-04T13:16:36;2.20;99.90
31837;DHT22;18401;49.344;6.240;2023-12-04T13:19:01;2.30;99.90
31837;DHT22;18401;49.344;6.240;2023-12-04T13:21:27;2.30;99.90
31837;DHT22;18401;49.344;6.240;2023-12-04T13:23:55;2.30;99.90
31837;DHT22;18401;49.344;6.240;2023-12-04T13:26:20;2.40;99.90
31837;DHT22;18401;49.344;6.240;2023-12-04T13:28:47;2.40;99.90
31837;DHT22;18401;49.344;6.240;2023-12-04T13:31:13;2.40;99.90
31837;DHT22;18401;49.344;6.240;2023-12-04T13:33:38;2.30;99.90
31837;DHT22;18401;49.344;6.240;2023-12-04T13:36:04;2.30;99.90
31837;DHT22;18401;49.344;6.240;2023-12-04T13:38:30;2.40;99.90
31837;DHT22;18401;49.344;6.240;2023-12-04T13:40:56;2.40;99.90
31837;DHT22;18401;49.344;6.240;2023-12-04T13:43:33;2.40;99.90
31837;DHT22;18401;49.344;6.240;2023-12-04T13:46:18;2.40;99.90
31837;DHT22;18401;49.344;6.240;2023-12-04T13:48:44;2.40;99.90
31837;DHT22;18401;49.344;6.240;2023-12-04T13:51:10;2.50;99.90
31837;DHT22;18401;49.344;6.240;2023-12-04T13:53:37;2.50;99.90
31837;DHT22;18401;49.344;6.240;2023-12-04T13:56:10;2.50;99.90
31837;DHT22;18401;49.344;6.240;2023-12-04T13:58:53;2.50;99.90
31837;DHT22;18401;49.344;6.240;2023-12-04T14:01:25;2.50;99.90
31837;DHT22;18401;49.344;6.240;2023-12-04T14:03:55;2.50;99.90
31837;DHT22;18401;49.344;6.240;2023-12-04T14:06:31;2.60;99.90
31837;DHT22;18401;49.344;6.240;2023-12-04T14:08:58;2.60;99.90
31837;DHT22;18401;49.344;6.240;2023-12-04T14:11:24;2.60;99.90
31837;DHT22;18401;49.344;6.240;2023-12-04T14:13:50;2.60;99.90
31837;DHT22;18401;49.344;6.240;2023-12-04T14:16:16;2.70;99.90
31837;DHT22;18401;49.344;6.240;2023-12-04T14:18:42;2.80;99.90
31837;DHT22;18401;49.344;6.240;2023-12-04T14:21:08;2.80;99.90
31837;DHT22;18401;49.344;6.240;2023-12-04T14:23:34;2.90;99.90
31837;DHT22;18401;49.344;6.240;2023-12-04T14:26:00;2.90;99.90
31837;DHT22;18401;49.344;6.240;2023-12-04T14:28:27;2.90;99.90
31837;DHT22;18401;49.344;6.240;2023-12-04T14:30:53;2.90;99.90
31837;DHT22;18401;49.344;6.240;2023-12-04T14:33:19;2.90;99.90
31837;DHT22;18401;49.344;6.240;2023-12-04T14:35:45;3.00;99.90
31837;DHT22;18401;49.344;6.240;2023-12-04T14:38:11;3.00;99.90
31837;DHT22;18401;49.344;6.240;2023-12-04T14:40:36;3.10;99.90
31837;DHT22;18401;49.344;6.240;2023-12-04T14:43:02;3.00;99.90
31837;DHT22;18401;49.344;6.240;2023-12-04T14:45:28;3.00;99.90
31837;DHT22;18401;49.344;6.240;2023-12-04T14:47:54;3.00;99.90
31837;DHT22;18401;49.344;6.240;2023-12-04T14:50:22;3.00;99.90
31837;DHT22;18401;49.344;6.240;2023-12-04T14:52:49;3.00;99.90
31837;DHT22;18401;49.344;6.240;2023-12-04T14:55:19;3.10;99.90
31837;DHT22;18401;49.344;6.240;2023-12-04T14:57:51;3.10;99.90
31837;DHT22;18401;49.344;6.240;2023-12-04T15:00:22;3.00;99.90
31837;DHT22;18401;49.344;6.240;2023-12-04T15:03:07;3.10;99.90
31837;DHT22;18401;49.344;6.240;2023-12-04T15:05:50;3.20;99.90
31837;DHT22;18401;49.344;6.240;2023-12-04T15:08:28;3.20;99.90
31837;DHT22;18401;49.344;6.240;2023-12-04T15:11:12;3.30;99.90
31837;DHT22;18401;49.344;6.240;2023-12-04T15:13:56;3.20;99.90
31837;DHT22;18401;49.344;6.240;2023-12-04T15:16:28;3.20;99.90
31837;DHT22;18401;49.344;6.240;2023-12-04T15:18:57;3.10;99.90
31837;DHT22;18401;49.344;6.240;2023-12-04T15:21:23;3.10;99.90
31837;DHT22;18401;49.344;6.240;2023-12-04T15:23:49;3.10;99.90
31837;DHT22;18401;49.344;6.240;2023-12-04T15:26:16;3.10;99.90
31837;DHT22;18401;49.344;6.240;2023-12-04T15:28:43;3.10;99.90
31837;DHT22;18401;49.344;6.240;2023-12-04T15:31:08;3.10;99.90
31837;DHT22;18401;49.344;6.240;2023-12-04T15:33:34;3.10;99.90
31837;DHT22;18401;49.344;6.240;2023-12-04T15:36:00;3.10;99.90
31837;DHT22;18401;49.344;6.240;2023-12-04T15:38:25;3.20;99.90